Time;durP1;ratioP1;P1;durP2;ratioP2;P2;SDS_P1;SDS_P2;PMS_P1;PMS_P2;Temp;Humidity;BMP_temperature;BMP_pressure;BME280_temperature;BME280_humidity;BME280_pressure;Samples;Min_cycle;Max_cycle;Signal;HPM_P1;HPM_P2
2022/08/26 00:01:36;;;;;;;7.57;6.97;;;;;;;;;;5022065;28;20189;-56
2022/08/26 00:04:03;;;;;;;7.50;6.80;;;;;;;;;;4989215;28;20594;-57
2022/08/26 00:06:30;;;;;;;7.75;7.15;;;;;;;;;;5007024;28;20211;-56
2022/08/26 00:08:57;;;;;;;7.10;6.60;;;;;;;;;;5007396;28;20179;-57
2022/08/26 00:11:23;;;;;;;7.82;7.22;;;;;;;;;;5007088;28;20218;-57
2022/08/26 00:13:49;;;;;;;7.47;6.88;;;;;;;;;;5006335;28;20171;-56
2022/08/26 00:16:15;;;;;;;7.65;7.00;;;;;;;;;;5007420;28;20182;-56
2022/08/26 00:18:41;;;;;;;7.65;7.07;;;;;;;;;;5005967;28;20182;-56
2022/08/26 00:21:08;;;;;;;7.38;6.78;;;;;;;;;;4989733;28;20425;-57
2022/08/26 00:23:35;;;;;;;8.25;7.55;;;;;;;;;;5007513;28;20174;-56
2022/08/26 00:26:01;;;;;;;6.55;5.95;;;;;;;;;;5006216;28;20544;-57
2022/08/26 00:28:27;;;;;;;8.15;7.50;;;;;;;;;;5006108;28;20198;-57
2022/08/26 00:30:54;;;;;;;7.25;6.75;;;;;;;;;;5004597;28;20677;-57
2022/08/26 00:33:21;;;;;;;7.90;7.30;;;;;;;;;;4989594;28;20281;-58
2022/08/26 00:35:48;;;;;;;7.37;6.73;;;;;;;;;;5007682;28;20649;-56
2022/08/26 00:38:14;;;;;;;7.53;6.87;;;;;;;;;;5003597;28;20613;-56
2022/08/26 00:40:45;;;;;;;7.03;6.53;;;;;;;;;;5004287;28;20198;-57
2022/08/26 00:43:11;;;;;;;7.73;7.03;;;;;;;;;;5005099;28;20706;-56
2022/08/26 00:45:41;;;;;;;7.90;7.30;;;;;;;;;;4987401;28;20210;-57
2022/08/26 00:48:09;;;;;;;7.43;6.93;;;;;;;;;;5007165;28;20260;-57
2022/08/26 00:50:37;;;;;;;8.00;7.30;;;;;;;;;;4987038;28;20207;-57
2022/08/26 00:53:20;;;;;;;7.70;7.03;;;;;;;;;;5004978;28;20193;-58
2022/08/26 00:56:07;;;;;;;7.57;7.07;;;;;;;;;;4984071;28;20186;-57
2022/08/26 00:58:34;;;;;;;8.10;7.40;;;;;;;;;;5005133;28;20188;-57
2022/08/26 01:01:01;;;;;;;8.70;7.93;;;;;;;;;;5002330;28;20707;-56
2022/08/26 01:03:28;;;;;;;7.80;7.07;;;;;;;;;;5006408;28;20183;-57
2022/08/26 01:05:55;;;;;;;7.83;7.20;;;;;;;;;;5003653;28;20699;-57
2022/08/26 01:08:22;;;;;;;7.20;6.67;;;;;;;;;;5012758;28;20197;-57
2022/08/26 01:10:48;;;;;;;8.87;8.00;;;;;;;;;;5004112;28;20403;-57
2022/08/26 01:13:14;;;;;;;8.83;7.93;;;;;;;;;;5004028;28;20193;-57
2022/08/26 01:15:44;;;;;;;7.47;6.93;;;;;;;;;;5002829;28;20195;-56
2022/08/26 01:18:11;;;;;;;9.23;8.27;;;;;;;;;;5007129;28;20177;-56
2022/08/26 01:20:50;;;;;;;8.70;7.73;;;;;;;;;;5003161;28;20195;-57
2022/08/26 01:23:17;;;;;;;8.07;7.40;;;;;;;;;;5005714;28;20226;-57
2022/08/26 01:25:48;;;;;;;7.57;6.83;;;;;;;;;;5004178;28;20745;-56
2022/08/26 01:28:16;;;;;;;7.63;6.93;;;;;;;;;;5004046;28;20201;-57
2022/08/26 01:30:43;;;;;;;7.87;7.27;;;;;;;;;;5005961;28;20719;-57
2022/08/26 01:33:11;;;;;;;8.40;7.70;;;;;;;;;;5006192;28;20727;-57
2022/08/26 01:35:38;;;;;;;11.07;8.57;;;;;;;;;;5002435;28;20180;-57
2022/08/26 01:38:04;;;;;;;9.33;8.43;;;;;;;;;;5005596;28;20192;-57
2022/08/26 01:40:33;;;;;;;8.63;7.93;;;;;;;;;;5018275;28;20293;-57
2022/08/26 01:43:01;;;;;;;8.93;8.20;;;;;;;;;;5004517;28;20198;-57
2022/08/26 01:45:28;;;;;;;10.37;9.57;;;;;;;;;;5001239;28;20713;-57
2022/08/26 01:47:56;;;;;;;10.50;9.60;;;;;;;;;;5006342;28;20189;-58
2022/08/26 01:50:31;;;;;;;9.23;8.50;;;;;;;;;;5005534;28;20560;-56
2022/08/26 01:53:05;;;;;;;9.00;8.30;;;;;;;;;;5001816;28;20187;-57
2022/08/26 01:55:32;;;;;;;9.23;8.43;;;;;;;;;;5004560;28;20665;-56
2022/08/26 01:57:59;;;;;;;10.53;9.63;;;;;;;;;;5009875;28;20250;-57
2022/08/26 02:00:25;;;;;;;9.23;8.53;;;;;;;;;;5006095;28;20597;-57
2022/08/26 02:03:15;;;;;;;10.13;8.57;;;;;;;;;;4987809;28;20192;-56
2022/08/26 02:05:39;;;;;;;8.83;8.23;;;;;;;;;;5005455;28;20216;-56
2022/08/26 02:08:06;;;;;;;9.57;8.87;;;;;;;;;;5006557;28;20183;-56
2022/08/26 02:10:32;;;;;;;10.33;9.43;;;;;;;;;;5002965;28;20565;-56
2022/08/26 02:12:58;;;;;;;9.50;8.70;;;;;;;;;;5005412;28;20228;-57
2022/08/26 02:15:24;;;;;;;9.80;9.10;;;;;;;;;;5004649;28;20730;-57
2022/08/26 02:17:50;;;;;;;9.63;8.77;;;;;;;;;;4989726;28;20183;-57
2022/08/26 02:20:18;;;;;;;11.77;8.23;;;;;;;;;;5006304;28;20479;-57
2022/08/26 02:22:44;;;;;;;10.37;9.47;;;;;;;;;;5005657;28;20195;-57
2022/08/26 02:25:17;;;;;;;10.37;9.50;;;;;;;;;;5004861;28;20183;-57
2022/08/26 02:27:46;;;;;;;9.97;9.10;;;;;;;;;;4988613;28;20191;-56
2022/08/26 02:30:15;;;;;;;10.40;9.50;;;;;;;;;;5004710;28;20217;-56
2022/08/26 02:32:41;;;;;;;10.23;9.27;;;;;;;;;;4988880;28;20192;-56
2022/08/26 02:35:08;;;;;;;9.73;8.73;;;;;;;;;;5005890;28;20639;-56
2022/08/26 02:37:34;;;;;;;10.43;9.53;;;;;;;;;;4988883;28;20640;-57
2022/08/26 02:40:00;;;;;;;9.40;8.60;;;;;;;;;;5004775;28;20180;-57
2022/08/26 02:42:27;;;;;;;9.97;9.07;;;;;;;;;;5002519;28;20176;-56
2022/08/26 02:44:53;;;;;;;9.53;8.63;;;;;;;;;;5005234;28;20643;-56
2022/08/26 02:47:19;;;;;;;8.97;8.27;;;;;;;;;;5007285;28;20186;-56
2022/08/26 02:49:45;;;;;;;9.87;8.87;;;;;;;;;;5009196;28;20184;-58
2022/08/26 02:52:11;;;;;;;8.73;7.93;;;;;;;;;;5005859;28;20641;-57
2022/08/26 02:54:38;;;;;;;9.03;8.13;;;;;;;;;;5002563;28;20171;-56
2022/08/26 02:57:04;;;;;;;10.73;9.20;;;;;;;;;;5009993;28;20166;-56
2022/08/26 02:59:31;;;;;;;9.63;8.80;;;;;;;;;;5009603;28;20737;-58
2022/08/26 03:01:57;;;;;;;9.80;8.97;;;;;;;;;;4983810;28;20244;-57
2022/08/26 03:04:24;;;;;;;10.43;9.70;;;;;;;;;;4986634;28;20681;-56
2022/08/26 03:06:50;;;;;;;11.40;10.50;;;;;;;;;;4988420;28;20668;-56
2022/08/26 03:09:20;;;;;;;11.77;10.57;;;;;;;;;;5009814;28;20539;-55
2022/08/26 03:11:46;;;;;;;12.53;11.43;;;;;;;;;;4992963;28;20213;-56
2022/08/26 03:14:12;;;;;;;12.43;11.33;;;;;;;;;;5005523;28;20186;-56
2022/08/26 03:16:39;;;;;;;35.23;33.17;;;;;;;;;;4988371;28;20236;-56
2022/08/26 03:19:06;;;;;;;14.03;12.73;;;;;;;;;;5006578;28;20190;-57
2022/08/26 03:21:33;;;;;;;15.03;13.53;;;;;;;;;;5009720;28;20186;-56
2022/08/26 03:23:59;;;;;;;14.63;13.27;;;;;;;;;;5010203;28;20194;-56
2022/08/26 03:26:26;;;;;;;13.90;12.80;;;;;;;;;;5008915;28;20607;-56
2022/08/26 03:31:37;;;;;;;33.20;31.27;;;;;;;;;;5009515;28;20225;-56
2022/08/26 03:34:03;;;;;;;12.60;11.47;;;;;;;;;;5009542;28;20234;-56
2022/08/26 03:36:30;;;;;;;14.03;12.73;;;;;;;;;;5002217;28;20202;-55
2022/08/26 03:38:56;;;;;;;12.47;11.17;;;;;;;;;;4992476;28;20193;-56
2022/08/26 03:41:22;;;;;;;13.60;12.40;;;;;;;;;;5009717;28;20172;-56
2022/08/26 03:43:49;;;;;;;14.00;12.70;;;;;;;;;;5009641;28;20625;-55
2022/08/26 03:46:16;;;;;;;13.67;12.43;;;;;;;;;;5009487;28;20186;-57
2022/08/26 03:48:43;;;;;;;12.93;11.83;;;;;;;;;;4988917;28;20555;-56
2022/08/26 03:51:13;;;;;;;13.07;12.00;;;;;;;;;;5001872;28;20209;-56
2022/08/26 03:53:40;;;;;;;13.60;12.30;;;;;;;;;;5003503;28;20177;-56
2022/08/26 03:56:06;;;;;;;14.20;13.10;;;;;;;;;;4989613;28;20194;-56
2022/08/26 03:58:32;;;;;;;13.47;12.33;;;;;;;;;;5009014;28;20182;-56
2022/08/26 04:00:59;;;;;;;13.00;11.90;;;;;;;;;;5008618;28;20236;-56
2022/08/26 04:06:10;;;;;;;14.03;12.63;;;;;;;;;;4999398;28;20318;-57
2022/08/26 04:08:37;;;;;;;13.03;11.83;;;;;;;;;;5003770;28;20197;-56
2022/08/26 04:11:04;;;;;;;13.13;12.03;;;;;;;;;;4991518;28;20761;-58
2022/08/26 04:13:31;;;;;;;13.13;11.77;;;;;;;;;;4993081;28;20184;-56
2022/08/26 04:15:57;;;;;;;11.73;10.73;;;;;;;;;;4988775;28;20204;-57
2022/08/26 04:18:24;;;;;;;16.13;14.70;;;;;;;;;;5005639;28;20187;-57
2022/08/26 04:20:50;;;;;;;13.03;12.03;;;;;;;;;;5001091;28;20195;-56
2022/08/26 04:23:17;;;;;;;18.47;17.03;;;;;;;;;;4995566;28;20189;-57
2022/08/26 04:25:43;;;;;;;11.57;10.43;;;;;;;;;;4991046;28;20202;-56
2022/08/26 04:28:10;;;;;;;17.03;15.77;;;;;;;;;;5018168;28;20193;-56
2022/08/26 04:30:39;;;;;;;13.17;11.93;;;;;;;;;;4991504;28;20216;-57
2022/08/26 04:33:06;;;;;;;12.07;11.13;;;;;;;;;;4990543;28;20676;-57
2022/08/26 04:35:33;;;;;;;11.73;10.73;;;;;;;;;;4983481;28;20196;-57
2022/08/26 04:38:00;;;;;;;11.87;10.73;;;;;;;;;;4984680;28;20243;-56
2022/08/26 04:40:26;;;;;;;12.55;11.43;;;;;;;;;;5002623;28;20450;-57
2022/08/26 04:42:53;;;;;;;11.43;10.53;;;;;;;;;;5005648;28;20584;-56
2022/08/26 04:45:19;;;;;;;12.57;11.47;;;;;;;;;;4983252;28;20649;-56
2022/08/26 04:47:45;;;;;;;11.80;10.70;;;;;;;;;;5005402;28;20713;-57
2022/08/26 04:50:11;;;;;;;11.43;10.27;;;;;;;;;;5002756;28;20204;-57
2022/08/26 04:52:38;;;;;;;16.20;14.93;;;;;;;;;;5006867;28;20563;-57
2022/08/26 04:55:06;;;;;;;12.20;10.37;;;;;;;;;;5001002;28;20188;-56
2022/08/26 04:57:32;;;;;;;11.27;10.17;;;;;;;;;;5005629;28;20193;-57
2022/08/26 04:59:59;;;;;;;13.27;12.17;;;;;;;;;;4981487;28;20834;-56
2022/08/26 05:02:26;;;;;;;11.50;10.40;;;;;;;;;;4989590;28;20200;-56
2022/08/26 05:04:52;;;;;;;11.43;10.33;;;;;;;;;;4990947;28;20285;-57
2022/08/26 05:07:19;;;;;;;11.27;10.20;;;;;;;;;;5006483;28;20205;-57
2022/08/26 05:09:45;;;;;;;11.70;10.53;;;;;;;;;;5002907;28;20185;-56
2022/08/26 05:12:11;;;;;;;10.47;9.60;;;;;;;;;;5000885;28;20218;-57
2022/08/26 05:14:40;;;;;;;9.80;8.90;;;;;;;;;;4993759;28;20237;-57
2022/08/26 05:17:07;;;;;;;10.70;9.73;;;;;;;;;;5006329;28;20181;-56
2022/08/26 05:19:33;;;;;;;12.27;10.60;;;;;;;;;;5006065;28;20187;-56
2022/08/26 05:21:59;;;;;;;11.27;10.13;;;;;;;;;;4998799;28;20211;-57
2022/08/26 05:24:25;;;;;;;10.47;9.77;;;;;;;;;;5000776;28;20187;-57
2022/08/26 05:26:52;;;;;;;24.07;19.73;;;;;;;;;;5004417;28;20300;-55
2022/08/26 05:29:18;;;;;;;23.07;20.73;;;;;;;;;;5011243;28;20716;-57
2022/08/26 05:31:44;;;;;;;24.30;21.97;;;;;;;;;;4983589;28;20243;-55
2022/08/26 05:34:11;;;;;;;25.03;22.40;;;;;;;;;;4981216;28;20198;-55
2022/08/26 05:36:38;;;;;;;27.20;23.67;;;;;;;;;;5003525;28;20189;-56
2022/08/26 05:39:05;;;;;;;25.60;22.90;;;;;;;;;;4999898;28;20182;-55
2022/08/26 05:41:33;;;;;;;27.70;24.07;;;;;;;;;;4986747;28;20193;-55
2022/08/26 05:44:00;;;;;;;30.27;23.73;;;;;;;;;;4985926;28;20197;-56
2022/08/26 05:46:27;;;;;;;25.53;23.00;;;;;;;;;;5005188;28;20190;-55
2022/08/26 05:48:54;;;;;;;23.50;21.20;;;;;;;;;;5000844;28;20277;-57
2022/08/26 05:51:20;;;;;;;26.50;23.10;;;;;;;;;;5000236;28;20202;-56
2022/08/26 05:53:47;;;;;;;24.13;21.80;;;;;;;;;;5002699;28;20220;-54
2022/08/26 05:56:14;;;;;;;24.17;21.53;;;;;;;;;;4985353;28;20190;-58
2022/08/26 05:58:41;;;;;;;24.13;21.57;;;;;;;;;;5007186;28;20271;-55
2022/08/26 06:01:19;;;;;;;24.63;19.13;;;;;;;;;;5007924;28;20721;-55
2022/08/26 06:03:46;;;;;;;19.40;16.97;;;;;;;;;;5007615;28;20644;-55
2022/08/26 06:06:17;;;;;;;22.67;17.00;;;;;;;;;;4989401;28;20776;-55
2022/08/26 06:08:44;;;;;;;19.43;15.13;;;;;;;;;;4998842;28;20228;-55
2022/08/26 06:11:12;;;;;;;23.20;15.80;;;;;;;;;;4996537;28;20214;-55
2022/08/26 06:13:38;;;;;;;19.20;15.27;;;;;;;;;;5009453;28;20755;-55
2022/08/26 06:16:06;;;;;;;19.93;15.93;;;;;;;;;;4989390;28;20178;-55
2022/08/26 06:18:35;;;;;;;21.40;15.77;;;;;;;;;;5006759;28;20661;-54
2022/08/26 06:21:10;;;;;;;20.23;15.57;;;;;;;;;;4989801;28;20197;-54
2022/08/26 06:26:21;;;;;;;20.13;16.40;;;;;;;;;;5007343;28;20258;-55
2022/08/26 06:28:47;;;;;;;17.13;15.37;;;;;;;;;;4989483;28;20202;-55
2022/08/26 06:31:14;;;;;;;18.17;16.50;;;;;;;;;;5005756;28;20692;-57
2022/08/26 06:33:42;;;;;;;16.97;15.17;;;;;;;;;;5007504;28;20219;-54
2022/08/26 06:36:08;;;;;;;22.63;16.37;;;;;;;;;;4991438;28;20221;-56
2022/08/26 06:38:35;;;;;;;22.13;18.43;;;;;;;;;;5005970;28;20198;-55
2022/08/26 06:41:01;;;;;;;18.37;16.43;;;;;;;;;;4991239;28;20190;-55
2022/08/26 06:43:28;;;;;;;18.90;15.97;;;;;;;;;;5008745;28;20641;-54
2022/08/26 06:46:06;;;;;;;17.43;15.60;;;;;;;;;;5010985;28;20692;-56
2022/08/26 06:48:32;;;;;;;23.70;16.47;;;;;;;;;;4993222;28;20173;-54
2022/08/26 06:51:07;;;;;;;20.67;17.50;;;;;;;;;;4992612;28;20210;-56
2022/08/26 06:53:34;;;;;;;15.83;14.33;;;;;;;;;;4990670;28;20193;-55
2022/08/26 06:56:02;;;;;;;15.47;13.77;;;;;;;;;;5009707;28;20177;-56
2022/08/26 06:58:29;;;;;;;18.33;14.93;;;;;;;;;;5003196;28;20209;-55
2022/08/26 07:00:56;;;;;;;21.13;17.73;;;;;;;;;;5004871;28;20222;-55
2022/08/26 07:03:22;;;;;;;19.93;18.00;;;;;;;;;;5014836;28;20208;-55
2022/08/26 07:05:48;;;;;;;18.60;16.70;;;;;;;;;;4996897;28;20205;-55
2022/08/26 07:08:15;;;;;;;21.83;19.00;;;;;;;;;;5020930;28;20207;-55
2022/08/26 07:10:41;;;;;;;24.37;21.77;;;;;;;;;;4989029;28;20213;-56
2022/08/26 07:13:08;;;;;;;23.20;21.00;;;;;;;;;;4976942;28;20700;-54
2022/08/26 07:15:34;;;;;;;26.07;22.73;;;;;;;;;;4991053;28;20596;-57
2022/08/26 07:18:01;;;;;;;25.57;22.90;;;;;;;;;;4996012;28;20173;-55
2022/08/26 07:20:28;;;;;;;24.27;21.77;;;;;;;;;;4992960;28;20190;-55
2022/08/26 07:22:57;;;;;;;23.30;20.97;;;;;;;;;;4991668;28;20193;-54
2022/08/26 07:25:24;;;;;;;23.50;21.20;;;;;;;;;;4987932;28;20215;-55
2022/08/26 07:27:51;;;;;;;23.83;21.50;;;;;;;;;;5005165;28;20294;-55
2022/08/26 07:30:17;;;;;;;23.07;20.03;;;;;;;;;;5004904;28;20209;-54
2022/08/26 07:32:43;;;;;;;26.70;20.33;;;;;;;;;;5000522;28;20177;-55
2022/08/26 07:35:10;;;;;;;22.00;19.23;;;;;;;;;;5010536;28;20586;-55
2022/08/26 07:37:42;;;;;;;21.37;19.13;;;;;;;;;;4991998;28;20245;-57
2022/08/26 07:40:09;;;;;;;18.23;16.43;;;;;;;;;;5010410;28;20170;-56
2022/08/26 07:42:35;;;;;;;19.83;17.80;;;;;;;;;;5009187;28;20272;-55
2022/08/26 07:45:01;;;;;;;19.80;18.00;;;;;;;;;;4986939;28;20650;-55
2022/08/26 07:47:27;;;;;;;18.40;16.47;;;;;;;;;;4989809;28;20194;-56
2022/08/26 07:49:56;;;;;;;18.23;16.50;;;;;;;;;;5010353;28;20371;-55
2022/08/26 07:52:28;;;;;;;17.27;15.53;;;;;;;;;;4991943;28;20176;-56
2022/08/26 07:54:56;;;;;;;16.83;12.87;;;;;;;;;;5008710;28;20245;-55
2022/08/26 07:57:23;;;;;;;13.70;11.00;;;;;;;;;;4985178;28;20225;-56
2022/08/26 07:59:49;;;;;;;12.57;10.77;;;;;;;;;;5009054;28;20182;-54
2022/08/26 08:02:15;;;;;;;12.23;9.90;;;;;;;;;;4990354;28;20269;-55
2022/08/26 08:04:41;;;;;;;15.50;9.47;;;;;;;;;;5004474;28;20195;-54
2022/08/26 08:07:07;;;;;;;15.07;8.93;;;;;;;;;;4991501;28;20558;-55
2022/08/26 08:09:33;;;;;;;11.03;7.40;;;;;;;;;;5006945;28;20228;-54
2022/08/26 08:12:00;;;;;;;7.83;7.13;;;;;;;;;;4991468;28;20223;-55
2022/08/26 08:14:26;;;;;;;10.80;8.83;;;;;;;;;;5007663;28;20197;-55
2022/08/26 08:16:53;;;;;;;10.53;9.27;;;;;;;;;;5008766;28;20182;-55
2022/08/26 08:19:19;;;;;;;13.03;9.63;;;;;;;;;;4999193;28;20183;-55
2022/08/26 08:21:45;;;;;;;14.13;9.97;;;;;;;;;;4972259;28;20203;-56
2022/08/26 08:24:12;;;;;;;10.50;9.47;;;;;;;;;;4990159;28;20243;-55
2022/08/26 08:26:38;;;;;;;13.83;8.77;;;;;;;;;;5008921;28;20191;-54
2022/08/26 08:29:05;;;;;;;9.20;7.97;;;;;;;;;;5018662;28;20200;-54
2022/08/26 08:31:32;;;;;;;10.77;7.47;;;;;;;;;;4994408;28;20297;-62
2022/08/26 08:33:59;;;;;;;10.37;7.43;;;;;;;;;;4995798;28;20271;-55
2022/08/26 08:36:25;;;;;;;8.87;8.00;;;;;;;;;;5008002;28;20185;-55
2022/08/26 08:38:52;;;;;;;12.43;8.43;;;;;;;;;;5008212;28;20213;-55
2022/08/26 08:41:36;;;;;;;9.93;7.47;;;;;;;;;;4990969;28;20178;-54
2022/08/26 08:44:02;;;;;;;9.80;7.30;;;;;;;;;;4990728;28;20198;-57
2022/08/26 08:46:29;;;;;;;10.97;6.93;;;;;;;;;;5004138;28;20547;-54
2022/08/26 08:48:58;;;;;;;9.27;6.00;;;;;;;;;;4990751;28;20913;-56
2022/08/26 08:51:24;;;;;;;6.67;5.40;;;;;;;;;;5007624;28;20216;-54
2022/08/26 08:53:52;;;;;;;6.67;5.13;;;;;;;;;;4987796;28;20630;-56
2022/08/26 08:56:24;;;;;;;5.63;5.00;;;;;;;;;;4990086;28;20171;-54
2022/08/26 08:58:53;;;;;;;9.67;6.10;;;;;;;;;;5006872;28;20208;-54
2022/08/26 09:01:29;;;;;;;7.67;6.30;;;;;;;;;;4990506;28;20253;-54
2022/08/26 09:04:08;;;;;;;9.03;6.17;;;;;;;;;;4988453;28;20187;-54
2022/08/26 09:06:34;;;;;;;5.70;5.20;;;;;;;;;;4993316;28;20294;-54
2022/08/26 09:09:01;;;;;;;9.57;6.50;;;;;;;;;;4983755;28;20535;-54
2022/08/26 09:11:27;;;;;;;10.87;6.53;;;;;;;;;;4989387;28;20202;-55
2022/08/26 09:13:54;;;;;;;7.30;6.23;;;;;;;;;;5007933;28;20626;-55
2022/08/26 09:16:23;;;;;;;7.73;6.63;;;;;;;;;;5008030;28;20214;-55
2022/08/26 09:19:04;;;;;;;8.80;6.20;;;;;;;;;;4990355;28;20174;-56
2022/08/26 09:21:30;;;;;;;10.27;6.37;;;;;;;;;;4987379;28;20716;-55
2022/08/26 09:23:56;;;;;;;7.47;6.23;;;;;;;;;;4971185;28;20569;-55
2022/08/26 09:26:27;;;;;;;8.13;5.23;;;;;;;;;;5001772;28;20218;-56
2022/08/26 09:28:55;;;;;;;7.67;6.23;;;;;;;;;;4989434;28;20198;-55
2022/08/26 09:31:23;;;;;;;9.60;6.47;;;;;;;;;;4989519;28;20613;-57
2022/08/26 09:34:04;;;;;;;6.10;5.60;;;;;;;;;;4990200;28;20191;-54
2022/08/26 09:36:38;;;;;;;6.13;5.53;;;;;;;;;;5013568;28;20189;-54
2022/08/26 09:39:10;;;;;;;13.23;5.40;;;;;;;;;;5007265;28;20599;-54
2022/08/26 09:41:36;;;;;;;8.20;5.90;;;;;;;;;;4989396;28;20201;-55
2022/08/26 09:44:12;;;;;;;6.93;5.10;;;;;;;;;;4990083;28;20186;-54
2022/08/26 09:46:58;;;;;;;9.83;5.03;;;;;;;;;;4987453;28;20192;-54
2022/08/26 09:49:35;;;;;;;7.83;5.30;;;;;;;;;;4988518;28;20198;-55
2022/08/26 09:52:20;;;;;;;9.00;5.47;;;;;;;;;;5004358;28;20206;-55
2022/08/26 09:54:58;;;;;;;6.43;4.87;;;;;;;;;;5002690;28;20243;-56
2022/08/26 09:57:28;;;;;;;6.23;5.47;;;;;;;;;;5007216;28;20593;-54
2022/08/26 09:59:55;;;;;;;8.63;5.20;;;;;;;;;;4979574;28;20195;-54
2022/08/26 10:02:33;;;;;;;7.33;4.73;;;;;;;;;;5003053;28;20232;-55
2022/08/26 10:05:01;;;;;;;9.00;4.90;;;;;;;;;;4987779;28;20213;-54
2022/08/26 10:07:35;;;;;;;7.93;4.90;;;;;;;;;;4989827;28;20182;-54
2022/08/26 10:10:03;;;;;;;7.63;6.20;;;;;;;;;;5009647;28;20166;-55
2022/08/26 10:12:31;;;;;;;6.50;5.40;;;;;;;;;;5008826;28;20201;-53
2022/08/26 10:15:01;;;;;;;10.87;5.80;;;;;;;;;;4989699;28;20232;-56
2022/08/26 10:17:39;;;;;;;7.30;4.97;;;;;;;;;;5006902;28;20171;-57
2022/08/26 10:20:09;;;;;;;6.70;5.47;;;;;;;;;;4993156;28;20221;-55
2022/08/26 10:22:56;;;;;;;7.43;5.80;;;;;;;;;;4988211;28;20188;-54
2022/08/26 10:25:39;;;;;;;9.10;5.83;;;;;;;;;;4985017;28;20182;-56
2022/08/26 10:28:17;;;;;;;9.87;5.23;;;;;;;;;;4999060;28;20759;-55
2022/08/26 10:30:49;;;;;;;8.83;5.30;;;;;;;;;;4988015;28;20269;-55
2022/08/26 10:33:16;;;;;;;11.17;6.17;;;;;;;;;;4995537;28;20193;-54
2022/08/26 10:35:53;;;;;;;12.17;5.37;;;;;;;;;;5006720;28;20689;-55
2022/08/26 10:38:24;;;;;;;7.77;5.00;;;;;;;;;;4988863;28;20174;-56
2022/08/26 10:40:50;;;;;;;7.83;7.03;;;;;;;;;;4989309;28;20190;-54
2022/08/26 10:43:28;;;;;;;10.83;8.60;;;;;;;;;;4988398;28;20175;-54
2022/08/26 10:45:58;;;;;;;8.93;6.47;;;;;;;;;;4990092;28;20194;-55
2022/08/26 10:48:27;;;;;;;9.03;5.73;;;;;;;;;;5007494;28;20396;-55
2022/08/26 10:50:56;;;;;;;11.53;6.37;;;;;;;;;;4988863;28;20207;-55
2022/08/26 10:53:27;;;;;;;9.53;7.00;;;;;;;;;;4988225;28;20316;-56
2022/08/26 10:56:09;;;;;;;7.70;6.10;;;;;;;;;;4989497;28;20596;-55
2022/08/26 10:58:38;;;;;;;11.33;6.87;;;;;;;;;;5006769;28;20703;-55
2022/08/26 11:03:59;;;;;;;9.90;6.80;;;;;;;;;;5006421;28;20248;-56
2022/08/26 11:06:27;;;;;;;16.90;7.70;;;;;;;;;;5005602;28;20225;-55
2022/08/26 11:08:58;;;;;;;8.27;6.70;;;;;;;;;;5007318;28;20609;-55
2022/08/26 11:11:39;;;;;;;6.90;6.30;;;;;;;;;;5005321;28;20745;-56
2022/08/26 11:14:32;;;;;;;11.03;6.30;;;;;;;;;;5006939;28;20203;-55
2022/08/26 11:16:58;;;;;;;10.57;6.23;;;;;;;;;;5004609;28;20206;-56
2022/08/26 11:19:32;;;;;;;10.73;5.50;;;;;;;;;;5000321;28;20684;-56
2022/08/26 11:22:10;;;;;;;5.97;4.83;;;;;;;;;;5010299;28;20680;-56
2022/08/26 11:24:41;;;;;;;8.20;4.87;;;;;;;;;;4992690;28;20269;-57
2022/08/26 11:27:08;;;;;;;7.77;5.10;;;;;;;;;;4992857;28;20651;-56
2022/08/26 11:29:53;;;;;;;8.57;5.07;;;;;;;;;;5007920;28;20208;-56
2022/08/26 11:32:24;;;;;;;10.77;5.20;;;;;;;;;;4990978;28;20589;-57
2022/08/26 11:34:55;;;;;;;8.47;4.50;;;;;;;;;;4995284;28;20171;-57
2022/08/26 11:37:23;;;;;;;10.23;5.10;;;;;;;;;;4978895;28;20175;-57
2022/08/26 11:39:51;;;;;;;7.20;4.13;;;;;;;;;;5006670;28;20175;-58
2022/08/26 11:42:33;;;;;;;7.50;4.63;;;;;;;;;;5007181;28;20186;-56
2022/08/26 11:45:00;;;;;;;9.57;5.40;;;;;;;;;;5003508;28;20677;-56
2022/08/26 11:47:30;;;;;;;13.17;5.03;;;;;;;;;;5007972;28;20706;-57
2022/08/26 11:50:11;;;;;;;6.43;4.17;;;;;;;;;;4989990;28;20238;-56
2022/08/26 11:52:37;;;;;;;7.23;5.00;;;;;;;;;;4989893;28;20210;-54
2022/08/26 11:55:04;;;;;;;7.27;5.03;;;;;;;;;;4990250;28;20192;-56
2022/08/26 11:57:32;;;;;;;7.90;6.57;;;;;;;;;;5007264;28;20188;-54
2022/08/26 11:59:58;;;;;;;7.43;4.87;;;;;;;;;;5003610;28;20192;-59
2022/08/26 12:02:26;;;;;;;6.67;6.10;;;;;;;;;;5015271;28;20592;-55
2022/08/26 12:04:53;;;;;;;8.13;4.70;;;;;;;;;;4985145;28;20259;-56
2022/08/26 12:07:24;;;;;;;6.03;5.57;;;;;;;;;;5004357;28;20438;-56
2022/08/26 12:09:53;;;;;;;10.93;4.67;;;;;;;;;;5007107;28;20201;-56
2022/08/26 12:12:24;;;;;;;8.07;3.97;;;;;;;;;;4985895;28;20202;-55
2022/08/26 12:15:04;;;;;;;7.07;4.10;;;;;;;;;;4986066;28;20184;-55
2022/08/26 12:17:30;;;;;;;5.47;4.00;;;;;;;;;;4985286;28;20173;-55
2022/08/26 12:19:57;;;;;;;6.77;3.87;;;;;;;;;;4985949;28;20177;-56
2022/08/26 12:22:28;;;;;;;6.83;6.23;;;;;;;;;;4979324;28;20218;-56
2022/08/26 12:24:59;;;;;;;5.37;4.87;;;;;;;;;;4983421;28;20321;-56
2022/08/26 12:27:32;;;;;;;6.43;5.17;;;;;;;;;;5005738;28;20263;-57
2022/08/26 12:30:04;;;;;;;4.93;4.17;;;;;;;;;;4985083;28;20674;-56
2022/08/26 12:32:32;;;;;;;5.97;4.60;;;;;;;;;;5005537;28;20295;-56
2022/08/26 12:35:00;;;;;;;8.47;4.60;;;;;;;;;;5004845;28;20180;-55
2022/08/26 12:37:27;;;;;;;6.37;4.37;;;;;;;;;;4983937;28;20194;-56
2022/08/26 12:39:53;;;;;;;5.57;4.40;;;;;;;;;;4987207;28;20898;-55
2022/08/26 12:42:19;;;;;;;6.27;4.77;;;;;;;;;;4981321;28;20207;-56
2022/08/26 12:44:59;;;;;;;8.87;4.67;;;;;;;;;;4986660;28;20608;-56
2022/08/26 12:47:41;;;;;;;4.03;3.73;;;;;;;;;;4989213;28;20179;-56
2022/08/26 12:50:08;;;;;;;7.30;5.75;;;;;;;;;;4988452;28;20423;-55
2022/08/26 12:52:41;;;;;;;6.13;4.60;;;;;;;;;;4984739;28;20218;-56
2022/08/26 12:55:24;;;;;;;5.93;4.77;;;;;;;;;;4987287;28;20187;-55
2022/08/26 12:58:08;;;;;;;5.67;4.37;;;;;;;;;;5006310;28;20180;-56
2022/08/26 13:00:36;;;;;;;5.37;4.87;;;;;;;;;;5018136;28;20760;-56
2022/08/26 13:03:02;;;;;;;5.93;4.07;;;;;;;;;;4989961;28;20217;-56
2022/08/26 13:05:36;;;;;;;10.87;4.40;;;;;;;;;;4987260;28;20213;-55
2022/08/26 13:08:15;;;;;;;7.73;4.23;;;;;;;;;;5014116;28;20202;-55
2022/08/26 13:10:46;;;;;;;7.00;4.50;;;;;;;;;;5008135;28;20207;-55
2022/08/26 13:13:13;;;;;;;8.63;5.20;;;;;;;;;;5004996;28;20182;-55
2022/08/26 13:15:39;;;;;;;5.73;4.23;;;;;;;;;;4991518;28;20225;-56
2022/08/26 13:18:06;;;;;;;7.87;4.40;;;;;;;;;;4989407;28;20186;-56
2022/08/26 13:20:32;;;;;;;9.90;3.87;;;;;;;;;;5007730;28;20202;-57
2022/08/26 13:22:59;;;;;;;6.20;4.30;;;;;;;;;;4986211;28;20183;-57
2022/08/26 13:25:25;;;;;;;8.10;4.10;;;;;;;;;;4968323;28;20178;-58
2022/08/26 13:27:52;;;;;;;4.90;4.10;;;;;;;;;;5005895;28;20290;-56
2022/08/26 13:30:20;;;;;;;8.53;4.70;;;;;;;;;;4989311;28;20182;-57
2022/08/26 13:32:46;;;;;;;5.83;4.13;;;;;;;;;;5005710;28;20222;-58
2022/08/26 13:35:13;;;;;;;5.27;3.83;;;;;;;;;;5005153;28;20163;-56
2022/08/26 13:37:39;;;;;;;4.07;3.67;;;;;;;;;;5003842;28;20579;-59
2022/08/26 13:40:06;;;;;;;16.50;5.23;;;;;;;;;;4988634;28;20178;-57
2022/08/26 13:42:32;;;;;;;23.80;5.50;;;;;;;;;;5021411;28;20181;-57
2022/08/26 13:45:06;;;;;;;16.57;6.50;;;;;;;;;;4981988;28;20237;-58
2022/08/26 13:47:32;;;;;;;16.43;5.90;;;;;;;;;;4990363;28;20273;-57
2022/08/26 13:49:59;;;;;;;10.40;5.30;;;;;;;;;;4989582;28;20189;-54
2022/08/26 13:52:25;;;;;;;7.87;3.97;;;;;;;;;;4985338;28;20210;-57
2022/08/26 13:54:51;;;;;;;5.77;4.10;;;;;;;;;;5000495;28;20243;-56
2022/08/26 13:57:27;;;;;;;7.53;6.23;;;;;;;;;;4983233;28;20266;-56
2022/08/26 13:59:55;;;;;;;9.90;9.10;;;;;;;;;;4985866;28;20288;-55
2022/08/26 14:02:34;;;;;;;8.20;7.00;;;;;;;;;;5002019;28;20253;-56
2022/08/26 14:05:00;;;;;;;6.33;5.07;;;;;;;;;;5005858;28;20281;-56
2022/08/26 14:07:29;;;;;;;3.70;3.27;;;;;;;;;;5002455;28;20190;-57
2022/08/26 14:09:55;;;;;;;7.23;4.50;;;;;;;;;;5004964;28;20211;-55
2022/08/26 14:12:21;;;;;;;5.13;4.00;;;;;;;;;;5005665;28;20202;-57
2022/08/26 14:14:47;;;;;;;4.53;3.80;;;;;;;;;;4979958;28;20185;-55
2022/08/26 14:17:17;;;;;;;8.80;5.20;;;;;;;;;;5002835;28;20189;-54
2022/08/26 14:19:45;;;;;;;6.63;4.73;;;;;;;;;;5000264;28;20183;-55
2022/08/26 14:22:19;;;;;;;12.07;8.83;;;;;;;;;;5002125;28;20186;-57
2022/08/26 14:24:45;;;;;;;7.83;3.50;;;;;;;;;;4998990;28;20626;-57
2022/08/26 14:27:12;;;;;;;4.80;3.20;;;;;;;;;;4988292;28;20182;-57
2022/08/26 14:29:38;;;;;;;16.97;4.13;;;;;;;;;;4986930;28;20352;-55
2022/08/26 14:32:09;;;;;;;8.10;3.57;;;;;;;;;;5005632;28;20205;-58
2022/08/26 14:34:35;;;;;;;5.53;3.57;;;;;;;;;;5005478;28;20163;-56
2022/08/26 14:37:02;;;;;;;8.60;3.60;;;;;;;;;;4989001;28;20179;-57
2022/08/26 14:39:28;;;;;;;6.80;3.60;;;;;;;;;;4989602;28;20194;-56
2022/08/26 14:41:55;;;;;;;24.47;4.00;;;;;;;;;;4987970;28;20187;-57
2022/08/26 14:44:24;;;;;;;6.37;4.37;;;;;;;;;;4987595;28;20174;-59
2022/08/26 14:46:51;;;;;;;6.60;3.60;;;;;;;;;;4972382;28;20182;-58
2022/08/26 14:49:18;;;;;;;6.60;3.73;;;;;;;;;;5002504;28;20183;-59
2022/08/26 14:51:45;;;;;;;4.53;3.30;;;;;;;;;;5004763;28;20546;-57
2022/08/26 14:54:12;;;;;;;7.50;2.87;;;;;;;;;;4991357;28;20217;-57